createdAt,value
2023-05-09T00:01:14.771Z,78.75
2023-05-09T00:02:18.857Z,78.87
2023-05-09T00:03:22.949Z,78.87
2023-05-09T00:04:27.520Z,79.14
2023-05-09T00:05:31.424Z,79.00
2023-05-09T00:06:35.647Z,79.46
2023-05-09T00:07:40.297Z,79.60
2023-05-09T00:08:44.866Z,79.53
2023-05-09T00:09:49.085Z,79.87
2023-05-09T00:10:56.214Z,79.87
2023-05-09T00:12:00.289Z,79.85
2023-05-09T00:13:04.815Z,79.43
2023-05-09T00:14:14.055Z,79.70
2023-05-09T00:15:19.199Z,79.96
2023-05-09T00:16:24.472Z,79.91
2023-05-09T00:17:28.867Z,81.09
2023-05-09T00:18:34.162Z,80.84
2023-05-09T00:19:39.265Z,80.98
2023-05-09T00:20:44.804Z,81.03
2023-05-09T00:21:49.641Z,81.46
2023-05-09T00:22:53.746Z,81.08
2023-05-09T00:24:01.281Z,81.32
2023-05-09T00:25:11.738Z,81.78
2023-05-09T00:26:17.027Z,81.85
2023-05-09T00:27:21.705Z,81.74
2023-05-09T00:28:25.469Z,81.67
2023-05-09T00:29:29.203Z,81.74
2023-05-09T00:30:34.855Z,81.82
2023-05-09T00:31:40.127Z,82.07
2023-05-09T00:32:44.167Z,81.96
2023-05-09T00:33:56.820Z,82.80
2023-05-09T00:35:08.007Z,83.20
2023-05-09T00:36:22.453Z,82.85
2023-05-09T00:37:26.937Z,82.84
2023-05-09T00:38:37.037Z,83.34
2023-05-09T00:39:41.092Z,82.80
2023-05-09T00:40:45.894Z,83.39
2023-05-09T00:41:49.975Z,83.27
2023-05-09T00:42:53.910Z,83.11
2023-05-09T00:44:01.757Z,83.45
2023-05-09T00:45:10.404Z,83.46
2023-05-09T00:46:14.567Z,83.51
2023-05-09T00:47:18.945Z,84.21
2023-05-09T00:48:23.297Z,84.15
2023-05-09T00:49:27.668Z,84.19
2023-05-09T00:50:32.083Z,84.10
2023-05-09T00:51:38.879Z,84.27
2023-05-09T00:52:43.130Z,83.90
2023-05-09T00:53:47.375Z,84.13
2023-05-09T00:54:56.894Z,84.01
2023-05-09T00:56:01.066Z,84.03
2023-05-09T00:57:08.482Z,84.24
2023-05-09T00:58:13.763Z,84.40
2023-05-09T00:59:21.081Z,84.39
2023-05-09T01:00:25.697Z,84.03
2023-05-09T01:01:30.325Z,84.02
2023-05-09T01:02:35.320Z,84.09
2023-05-09T01:03:42.051Z,83.97
2023-05-09T01:04:47.431Z,84.31
2023-05-09T01:06:42.178Z,84.59
2023-05-09T01:08:13.471Z,84.70
2023-05-09T01:09:44.241Z,84.86
2023-05-09T01:11:30.517Z,84.90
2023-05-09T01:13:10.889Z,85.71
2023-05-09T01:14:36.719Z,85.54
2023-05-09T01:16:08.921Z,85.68
2023-05-09T01:17:31.334Z,86.21
2023-05-09T01:18:51.935Z,85.46
2023-05-09T01:20:14.860Z,85.57
2023-05-09T01:21:29.366Z,85.86
2023-05-09T01:22:36.842Z,86.38
2023-05-09T01:24:17.700Z,86.67
2023-05-09T01:26:03.419Z,86.51
2023-05-09T01:27:45.417Z,87.13
2023-05-09T01:29:21.568Z,87.11
2023-05-09T01:30:27.753Z,87.06
2023-05-09T01:31:36.979Z,87.21
2023-05-09T01:32:46.952Z,86.73
2023-05-09T01:34:09.221Z,86.86
2023-05-09T01:35:16.409Z,87.19
2023-05-09T01:36:23.127Z,86.99
2023-05-09T01:37:38.311Z,87.06
2023-05-09T01:38:45.033Z,87.15
2023-05-09T01:39:53.954Z,86.77
2023-05-09T01:41:00.991Z,86.93
2023-05-09T01:42:09.102Z,86.67
2023-05-09T01:43:19.523Z,86.93
2023-05-09T01:44:25.934Z,87.03
2023-05-09T01:45:31.511Z,87.20
2023-05-09T01:46:37.361Z,87.20
2023-05-09T01:47:46.128Z,87.14
2023-05-09T01:48:53.729Z,87.29
2023-05-09T01:49:58.046Z,86.94
2023-05-09T01:51:04.275Z,87.32
2023-05-09T01:52:17.201Z,87.79
2023-05-09T01:53:24.856Z,88.96
2023-05-09T01:54:30.916Z,88.63
2023-05-09T01:55:39.958Z,88.49
2023-05-09T01:56:45.788Z,88.70
2023-05-09T01:57:51.117Z,87.84
2023-05-09T01:58:58.820Z,88.18
2023-05-09T02:00:08.119Z,87.90
2023-05-09T02:01:16.538Z,87.90
2023-05-09T02:02:21.918Z,88.34
2023-05-09T02:03:27.028Z,88.65
2023-05-09T02:04:32.590Z,88.35
2023-05-09T02:05:37.939Z,88.58
2023-05-09T02:06:44.934Z,88.40
2023-05-09T02:07:50.242Z,88.58
2023-05-09T02:08:54.288Z,88.87
2023-05-09T02:10:00.842Z,88.97
2023-05-09T02:11:05.684Z,88.93
2023-05-09T02:12:10.154Z,88.88
2023-05-09T02:13:14.273Z,88.91
2023-05-09T02:14:18.442Z,88.62
2023-05-09T02:15:23.302Z,88.79
2023-05-09T02:16:28.818Z,88.87
2023-05-09T02:17:32.935Z,88.74
2023-05-09T02:18:37.418Z,88.46
2023-05-09T02:19:41.252Z,88.53
2023-05-09T02:20:45.334Z,88.42
2023-05-09T02:21:52.271Z,88.57
2023-05-09T02:22:56.322Z,88.79
2023-05-09T02:24:00.795Z,88.79
2023-05-09T02:25:10.005Z,88.55
2023-05-09T02:26:15.334Z,88.59
2023-05-09T02:27:20.905Z,88.68
2023-05-09T02:28:30.631Z,88.83
2023-05-09T02:29:44.702Z,88.56
2023-05-09T02:30:54.092Z,88.75
2023-05-09T02:32:00.674Z,88.70
2023-05-09T02:33:10.875Z,89.10
2023-05-09T02:34:15.422Z,89.00
2023-05-09T02:35:22.027Z,89.27
2023-05-09T02:36:28.220Z,89.10
2023-05-09T02:37:34.339Z,89.00
2023-05-09T02:38:38.318Z,89.04
2023-05-09T02:39:42.784Z,88.97
2023-05-09T02:40:50.903Z,89.49
2023-05-09T02:41:56.113Z,89.76
2023-05-09T02:43:01.124Z,89.80
2023-05-09T02:44:05.555Z,89.65
2023-05-09T02:45:11.298Z,89.47
2023-05-09T02:46:16.642Z,89.72
2023-05-09T02:47:21.649Z,89.63
2023-05-09T02:48:26.056Z,89.95
2023-05-09T02:49:32.499Z,89.61
2023-05-09T02:50:39.735Z,90.25
2023-05-09T02:51:43.746Z,90.46
2023-05-09T02:52:47.785Z,90.40
2023-05-09T02:53:52.496Z,90.33
2023-05-09T02:55:00.708Z,89.95
2023-05-09T02:56:04.828Z,89.91
2023-05-09T02:57:08.878Z,90.29
2023-05-09T02:58:16.392Z,90.60
2023-05-09T02:59:20.504Z,90.77
2023-05-09T03:00:26.280Z,90.35
2023-05-09T03:01:31.476Z,90.19
2023-05-09T03:02:36.982Z,90.45
2023-05-09T03:03:41.527Z,90.23
2023-05-09T03:04:46.922Z,90.20
2023-05-09T03:05:51.201Z,89.96
2023-05-09T03:06:55.332Z,89.64
2023-05-09T03:07:58.961Z,89.76
2023-05-09T03:09:06.445Z,89.83
2023-05-09T03:10:13.753Z,89.92
2023-05-09T03:11:17.707Z,90.16
2023-05-09T03:12:22.456Z,90.28
2023-05-09T03:13:27.156Z,90.04
2023-05-09T03:14:31.528Z,90.06
2023-05-09T03:15:35.205Z,89.98
2023-05-09T03:16:39.173Z,89.78
2023-05-09T03:17:42.795Z,90.03
2023-05-09T03:18:46.768Z,89.83
2023-05-09T03:19:51.480Z,89.33
2023-05-09T03:20:55.314Z,89.66
2023-05-09T03:21:58.867Z,89.82
2023-05-09T03:23:02.745Z,89.75
2023-05-09T03:24:08.250Z,89.83
2023-05-09T03:25:12.337Z,89.99
2023-05-09T03:26:16.248Z,90.45
2023-05-09T03:27:20.582Z,90.14
2023-05-09T03:28:24.374Z,90.10
2023-05-09T03:29:28.250Z,90.36
2023-05-09T03:30:32.818Z,90.44
2023-05-09T03:31:36.562Z,91.25
2023-05-09T03:32:43.584Z,91.23
2023-05-09T03:33:47.582Z,91.00
2023-05-09T03:34:51.984Z,90.85
2023-05-09T03:35:56.532Z,91.05
2023-05-09T03:37:01.729Z,91.10
2023-05-09T03:38:05.842Z,91.50
2023-05-09T03:39:13.382Z,91.11
2023-05-09T03:40:18.548Z,91.13
2023-05-09T03:41:26.343Z,91.17
2023-05-09T03:42:30.389Z,91.28
2023-05-09T03:43:34.267Z,90.85
2023-05-09T03:44:38.881Z,91.30
2023-05-09T03:45:43.779Z,91.05
2023-05-09T03:46:47.959Z,90.95
2023-05-09T03:47:52.766Z,91.03
2023-05-09T03:48:57.170Z,91.08
2023-05-09T03:50:02.386Z,91.24
2023-05-09T03:51:06.457Z,91.73
2023-05-09T03:52:11.068Z,91.86
2023-05-09T03:53:14.845Z,91.88
2023-05-09T03:54:18.802Z,91.81
2023-05-09T03:55:24.256Z,91.73
2023-05-09T03:56:30.656Z,91.72
2023-05-09T03:57:36.133Z,91.48
2023-05-09T03:58:43.214Z,91.58
2023-05-09T03:59:47.248Z,91.83
2023-05-09T04:00:51.659Z,91.73
2023-05-09T04:01:55.837Z,91.67
2023-05-09T04:03:00.677Z,91.90
2023-05-09T04:04:08.033Z,92.16
2023-05-09T04:05:12.668Z,92.06
2023-05-09T04:06:17.292Z,91.91
2023-05-09T04:07:21.089Z,91.82
2023-05-09T04:08:25.299Z,91.68
2023-05-09T04:09:29.303Z,91.48
2023-05-09T04:10:33.591Z,91.09
2023-05-09T04:11:44.289Z,91.23
2023-05-09T04:12:48.395Z,91.06
2023-05-09T04:13:52.532Z,90.57
2023-05-09T04:14:56.686Z,90.55
2023-05-09T04:16:00.871Z,90.53
2023-05-09T04:17:05.683Z,90.43
2023-05-09T04:18:09.562Z,90.35
2023-05-09T04:19:13.748Z,90.99
2023-05-09T04:20:18.431Z,90.96
2023-05-09T04:21:22.084Z,90.71
2023-05-09T04:22:27.849Z,90.81
2023-05-09T04:23:34.740Z,90.92
2023-05-09T04:24:38.931Z,91.08
2023-05-09T04:25:42.800Z,90.72
2023-05-09T04:26:46.886Z,90.76
2023-05-09T04:27:51.825Z,90.81
2023-05-09T04:28:55.977Z,91.09
2023-05-09T04:30:00.577Z,91.28
2023-05-09T04:31:04.507Z,91.35
2023-05-09T04:32:09.074Z,91.56
2023-05-09T04:33:15.645Z,90.90
2023-05-09T04:34:19.978Z,91.55
2023-05-09T04:35:24.260Z,91.64
2023-05-09T04:36:28.116Z,91.88
2023-05-09T04:37:33.259Z,91.45
2023-05-09T04:38:36.973Z,91.26
2023-05-09T04:39:41.037Z,91.08
2023-05-09T04:40:45.640Z,91.17
2023-05-09T04:41:50.356Z,90.74
2023-05-09T04:42:57.455Z,90.96
2023-05-09T04:44:02.152Z,90.66
2023-05-09T04:45:08.538Z,91.45
2023-05-09T04:46:13.011Z,91.75
2023-05-09T04:47:17.430Z,91.16
2023-05-09T04:48:21.650Z,90.95
2023-05-09T04:49:26.138Z,90.67
2023-05-09T04:50:31.432Z,90.76
2023-05-09T04:51:35.540Z,90.32
2023-05-09T04:52:39.171Z,90.49
2023-05-09T04:53:45.042Z,90.26
2023-05-09T04:54:51.064Z,89.98
2023-05-09T04:55:55.185Z,89.67
2023-05-09T04:57:09.970Z,89.32
2023-05-09T04:58:30.075Z,89.54
2023-05-09T04:59:34.026Z,88.66
2023-05-09T05:00:38.103Z,88.33
2023-05-09T05:01:42.409Z,87.14
2023-05-09T05:02:46.910Z,86.65
2023-05-09T05:03:51.374Z,85.01
2023-05-09T05:05:10.136Z,84.56
2023-05-09T05:06:15.604Z,84.04
2023-05-09T05:07:19.833Z,82.95
2023-05-09T05:08:23.936Z,82.04
2023-05-09T05:09:30.390Z,81.55
2023-05-09T05:10:36.864Z,81.62
2023-05-09T05:11:47.741Z,79.97
2023-05-09T05:13:01.576Z,80.27
2023-05-09T05:14:08.200Z,78.96
2023-05-09T05:15:13.129Z,78.90
2023-05-09T05:16:17.375Z,78.22
2023-05-09T05:17:22.083Z,77.45
2023-05-09T05:18:25.756Z,76.69
2023-05-09T05:19:29.702Z,75.42
2023-05-09T05:20:34.420Z,75.36
2023-05-09T05:21:38.104Z,74.67
2023-05-09T05:22:41.803Z,72.04
2023-05-09T05:23:45.629Z,73.49
2023-05-09T05:24:49.907Z,73.69
2023-05-09T05:25:53.797Z,73.05
2023-05-09T05:26:57.394Z,71.78
2023-05-09T05:28:01.472Z,71.00
2023-05-09T05:29:05.354Z,69.85
2023-05-09T05:30:10.095Z,69.01
2023-05-09T05:31:15.585Z,68.74
2023-05-09T05:32:20.802Z,67.46
2023-05-09T05:33:27.713Z,67.65
2023-05-09T05:34:31.544Z,67.47
2023-05-09T05:35:35.792Z,66.47
2023-05-09T05:36:40.348Z,66.50
2023-05-09T05:37:49.054Z,65.80
2023-05-09T05:38:52.917Z,66.11
2023-05-09T05:39:57.294Z,65.26
2023-05-09T05:41:01.453Z,65.21
2023-05-09T05:42:05.663Z,64.92
2023-05-09T05:43:10.210Z,63.99
2023-05-09T05:44:14.406Z,63.52
2023-05-09T05:45:18.338Z,64.31
2023-05-09T05:46:23.966Z,63.19
2023-05-09T05:47:29.522Z,62.96
2023-05-09T05:48:34.678Z,62.52
2023-05-09T05:49:39.044Z,61.46
2023-05-09T05:50:43.053Z,61.61
2023-05-09T05:51:47.567Z,60.90
2023-05-09T05:52:51.907Z,61.89
2023-05-09T05:53:55.998Z,61.81
2023-05-09T05:55:00.217Z,60.70
2023-05-09T05:56:04.721Z,60.82
2023-05-09T05:57:09.640Z,61.06
2023-05-09T05:58:13.440Z,60.83
2023-05-09T05:59:17.435Z,59.72
2023-05-09T06:00:22.062Z,60.33
2023-05-09T06:01:26.837Z,58.67
2023-05-09T06:02:31.090Z,57.86
2023-05-09T06:03:35.264Z,57.16
2023-05-09T06:04:39.142Z,56.70
2023-05-09T06:05:48.760Z,56.02
2023-05-09T06:06:52.611Z,56.04
2023-05-09T06:07:57.329Z,55.47
2023-05-09T06:09:03.787Z,55.67
2023-05-09T06:10:16.057Z,56.00
2023-05-09T06:11:20.143Z,55.89
2023-05-09T06:12:26.668Z,55.34
2023-05-09T06:13:32.232Z,55.10
2023-05-09T06:14:36.540Z,54.86
2023-05-09T06:15:41.448Z,54.86
2023-05-09T06:16:46.330Z,55.01
2023-05-09T06:17:52.819Z,54.26
2023-05-09T06:18:58.478Z,54.20
2023-05-09T06:20:02.488Z,53.91
2023-05-09T06:21:11.528Z,53.37
2023-05-09T06:22:17.433Z,53.93
2023-05-09T06:23:22.838Z,54.02
2023-05-09T06:24:35.663Z,53.57
2023-05-09T06:25:43.918Z,53.64
2023-05-09T06:26:50.851Z,53.30
2023-05-09T06:27:54.664Z,53.70
2023-05-09T06:28:58.876Z,52.85
2023-05-09T06:30:14.087Z,52.92
2023-05-09T06:31:27.884Z,53.04
2023-05-09T06:32:34.919Z,52.59
2023-05-09T06:33:38.950Z,52.68
2023-05-09T06:34:42.633Z,52.35
2023-05-09T06:35:47.393Z,52.26
2023-05-09T06:36:51.366Z,51.04
2023-05-09T06:37:55.269Z,51.33
2023-05-09T06:39:00.153Z,51.17
2023-05-09T06:40:04.614Z,50.08
2023-05-09T06:41:11.359Z,49.52
2023-05-09T06:42:15.785Z,49.39
2023-05-09T06:43:29.600Z,48.52
2023-05-09T06:44:33.513Z,48.51
2023-05-09T06:45:37.525Z,47.61
2023-05-09T06:46:48.199Z,48.63
2023-05-09T06:47:52.517Z,47.88
2023-05-09T06:48:56.729Z,48.00
2023-05-09T06:50:00.699Z,47.91
2023-05-09T06:51:05.287Z,47.48
2023-05-09T06:52:13.359Z,47.71
2023-05-09T06:53:22.681Z,46.81
2023-05-09T06:54:26.648Z,46.79
2023-05-09T06:55:30.784Z,47.38
2023-05-09T06:56:34.863Z,45.46
2023-05-09T06:57:41.110Z,45.53
2023-05-09T06:58:44.896Z,44.59
2023-05-09T06:59:48.893Z,44.11
2023-05-09T07:00:57.193Z,43.45
2023-05-09T07:02:00.990Z,43.76
2023-05-09T07:03:07.999Z,43.59
2023-05-09T07:04:11.807Z,43.03
2023-05-09T07:05:16.599Z,43.03
2023-05-09T07:06:20.779Z,42.84
2023-05-09T07:07:24.962Z,42.25
2023-05-09T07:08:28.926Z,42.22
2023-05-09T07:09:32.878Z,40.99
2023-05-09T07:10:38.803Z,41.55
2023-05-09T07:11:42.768Z,41.54
2023-05-09T07:12:47.306Z,40.78
2023-05-09T07:13:51.634Z,40.08
2023-05-09T07:14:55.486Z,40.20
2023-05-09T07:15:59.295Z,39.44
2023-05-09T07:17:21.148Z,38.68
2023-05-09T07:18:27.381Z,38.83
2023-05-09T07:19:31.338Z,37.69
2023-05-09T07:20:35.026Z,37.29
2023-05-09T07:21:38.797Z,36.84
2023-05-09T07:22:42.890Z,36.29
2023-05-09T07:23:46.870Z,35.87
2023-05-09T07:24:51.265Z,34.92
2023-05-09T07:25:59.106Z,34.46
2023-05-09T07:27:06.446Z,34.29
2023-05-09T07:28:12.770Z,34.15
2023-05-09T07:29:18.512Z,34.07
2023-05-09T07:30:22.530Z,34.09
2023-05-09T07:31:26.420Z,34.35
2023-05-09T07:32:38.159Z,34.43
2023-05-09T07:33:42.810Z,34.41
2023-05-09T07:34:47.833Z,34.89
2023-05-09T07:35:53.300Z,34.76
2023-05-09T07:36:58.900Z,34.81
2023-05-09T07:38:02.985Z,34.37
2023-05-09T07:39:08.332Z,33.88
2023-05-09T07:40:13.126Z,33.49
2023-05-09T07:41:18.020Z,33.36
2023-05-09T07:42:23.125Z,32.50
2023-05-09T07:43:27.430Z,32.00
2023-05-09T07:44:31.956Z,31.45
2023-05-09T07:45:36.791Z,31.19
2023-05-09T07:46:42.571Z,30.74
2023-05-09T07:47:47.107Z,30.33
2023-05-09T07:48:51.023Z,30.43
2023-05-09T07:49:54.878Z,30.16
2023-05-09T07:50:58.873Z,30.42
2023-05-09T07:52:03.655Z,29.73
2023-05-09T07:53:09.324Z,29.80
2023-05-09T07:54:13.201Z,29.25
2023-05-09T07:55:17.216Z,29.44
2023-05-09T07:56:22.788Z,29.50
2023-05-09T07:57:29.827Z,29.96
2023-05-09T07:58:33.841Z,30.15
2023-05-09T07:59:38.654Z,29.69
2023-05-09T08:00:43.297Z,29.86
2023-05-09T08:01:48.007Z,29.39
2023-05-09T08:02:53.469Z,29.80
2023-05-09T08:03:58.014Z,29.42
2023-05-09T08:05:05.569Z,28.79
2023-05-09T08:06:16.028Z,29.32
2023-05-09T08:07:19.861Z,29.79
2023-05-09T08:08:24.754Z,30.01
2023-05-09T08:09:29.443Z,29.38
2023-05-09T08:10:34.203Z,29.21
2023-05-09T08:11:38.482Z,30.02
2023-05-09T08:12:42.369Z,30.36
2023-05-09T08:13:47.098Z,31.09
2023-05-09T08:14:51.426Z,31.44
2023-05-09T08:15:55.357Z,31.34
2023-05-09T08:16:59.669Z,31.77
2023-05-09T08:18:04.265Z,31.98
2023-05-09T08:19:08.476Z,31.81
2023-05-09T08:20:14.256Z,31.92
2023-05-09T08:21:22.294Z,31.54
2023-05-09T08:22:26.853Z,31.38
2023-05-09T08:23:30.982Z,30.99
2023-05-09T08:24:35.427Z,31.02
2023-05-09T08:25:41.626Z,30.74
2023-05-09T08:26:46.059Z,30.21
2023-05-09T08:27:53.065Z,29.72
2023-05-09T08:28:57.520Z,29.76
2023-05-09T08:30:01.973Z,29.93
2023-05-09T08:31:05.902Z,29.50
2023-05-09T08:32:10.294Z,29.35
2023-05-09T08:33:17.463Z,29.41
2023-05-09T08:34:21.576Z,29.54
2023-05-09T08:35:28.696Z,29.67
2023-05-09T08:36:32.913Z,30.00
2023-05-09T08:37:37.489Z,30.15
2023-05-09T08:38:41.811Z,30.04
2023-05-09T08:39:46.989Z,30.89
2023-05-09T08:41:00.436Z,30.71
2023-05-09T08:42:04.773Z,30.60
2023-05-09T08:43:09.007Z,30.84
2023-05-09T08:44:13.908Z,30.48
2023-05-09T08:45:26.494Z,30.36
2023-05-09T08:46:39.330Z,30.33
2023-05-09T08:47:45.876Z,30.29
2023-05-09T08:48:51.701Z,31.07
2023-05-09T08:49:56.351Z,31.55
2023-05-09T08:51:01.922Z,32.22
2023-05-09T08:52:06.383Z,32.77
2023-05-09T08:53:12.409Z,33.26
2023-05-09T08:54:17.372Z,33.74
2023-05-09T08:55:22.252Z,34.37
2023-05-09T08:56:30.435Z,34.83
2023-05-09T08:57:38.020Z,35.26
2023-05-09T08:58:43.617Z,35.68
2023-05-09T08:59:50.351Z,36.43
2023-05-09T09:00:58.026Z,36.76
2023-05-09T09:02:08.209Z,36.91
2023-05-09T09:03:13.157Z,36.90
2023-05-09T09:04:20.856Z,37.47
2023-05-09T09:05:40.703Z,37.27
2023-05-09T09:06:47.349Z,37.38
2023-05-09T09:07:52.340Z,37.70
2023-05-09T09:09:00.172Z,37.80
2023-05-09T09:10:06.110Z,37.84
2023-05-09T09:11:15.221Z,37.91
2023-05-09T09:12:26.781Z,37.83
2023-05-09T09:13:32.163Z,37.45
2023-05-09T09:14:41.556Z,37.69
2023-05-09T09:15:48.277Z,37.79
2023-05-09T09:16:54.738Z,37.55
2023-05-09T09:18:09.528Z,37.07
2023-05-09T09:19:17.802Z,37.07
2023-05-09T09:20:27.266Z,37.35
2023-05-09T09:21:33.900Z,37.40
2023-05-09T09:22:43.378Z,37.60
2023-05-09T09:23:49.554Z,37.89
2023-05-09T09:24:53.876Z,38.08
2023-05-09T09:26:00.343Z,38.72
2023-05-09T09:27:08.319Z,38.37
2023-05-09T09:28:12.787Z,37.88
2023-05-09T09:29:20.697Z,37.32
2023-05-09T09:30:26.508Z,37.50
2023-05-09T09:31:33.823Z,38.01
2023-05-09T09:32:40.245Z,38.41
2023-05-09T09:33:44.684Z,38.22
2023-05-09T09:34:52.775Z,38.50
2023-05-09T09:35:59.748Z,38.67
2023-05-09T09:37:08.056Z,38.84
2023-05-09T09:38:12.408Z,38.57
2023-05-09T09:39:17.619Z,38.61
2023-05-09T09:40:26.722Z,38.94
2023-05-09T09:41:35.854Z,39.40
2023-05-09T09:42:49.480Z,39.09
2023-05-09T09:43:53.739Z,38.75
2023-05-09T09:45:03.876Z,38.54
2023-05-09T09:46:10.019Z,38.42
2023-05-09T09:47:14.969Z,39.00
2023-05-09T09:48:19.438Z,38.93
2023-05-09T09:49:26.943Z,39.20
2023-05-09T09:50:32.673Z,38.74
2023-05-09T09:51:36.880Z,38.75
2023-05-09T09:52:51.744Z,38.80
2023-05-09T09:53:57.745Z,38.97
2023-05-09T09:55:05.268Z,38.87
2023-05-09T09:56:09.989Z,38.81
2023-05-09T09:57:37.721Z,39.11
2023-05-09T09:58:42.951Z,38.94
2023-05-09T09:59:59.985Z,39.23
2023-05-09T10:01:09.697Z,39.26
2023-05-09T10:02:14.055Z,39.34
2023-05-09T10:03:18.068Z,38.96
2023-05-09T10:04:22.847Z,39.10
2023-05-09T10:05:31.881Z,39.10
2023-05-09T10:06:35.833Z,38.56
2023-05-09T10:07:40.179Z,38.81
2023-05-09T10:08:49.585Z,38.95
2023-05-09T10:09:54.102Z,38.99
2023-05-09T10:11:00.076Z,39.08
2023-05-09T10:12:09.101Z,38.57
2023-05-09T10:13:14.113Z,38.55
2023-05-09T10:14:21.824Z,38.75
2023-05-09T10:15:28.728Z,38.66
2023-05-09T10:16:43.541Z,38.93
2023-05-09T10:17:56.861Z,39.15
2023-05-09T10:19:01.085Z,39.30
2023-05-09T10:20:08.532Z,38.96
2023-05-09T10:21:16.080Z,39.22
2023-05-09T10:22:25.054Z,39.00
2023-05-09T10:23:33.147Z,38.27
2023-05-09T10:25:05.967Z,39.04
2023-05-09T10:26:29.189Z,38.90
2023-05-09T10:27:36.991Z,38.72
2023-05-09T10:28:45.207Z,39.08
2023-05-09T10:30:11.491Z,39.27
2023-05-09T10:31:28.097Z,40.02
2023-05-09T10:32:39.713Z,39.61
2023-05-09T10:33:51.573Z,39.84
2023-05-09T10:35:05.325Z,39.50
2023-05-09T10:36:10.868Z,39.94
2023-05-09T10:37:17.007Z,39.59
2023-05-09T10:38:22.262Z,39.82
2023-05-09T10:39:28.111Z,39.34
2023-05-09T10:40:34.588Z,38.34
2023-05-09T10:41:41.752Z,38.36
2023-05-09T10:42:47.997Z,38.39
2023-05-09T10:43:53.128Z,38.32
2023-05-09T10:44:58.141Z,38.57
2023-05-09T10:46:04.863Z,39.15
2023-05-09T10:47:10.154Z,39.31
2023-05-09T10:48:14.885Z,39.41
2023-05-09T10:49:20.591Z,40.04
2023-05-09T10:50:29.655Z,40.09
2023-05-09T10:51:34.156Z,40.30
2023-05-09T10:53:09.014Z,39.86
2023-05-09T10:54:33.771Z,40.31
2023-05-09T10:55:48.385Z,40.47
2023-05-09T10:56:52.188Z,40.04
2023-05-09T10:57:56.220Z,39.52
2023-05-09T10:59:01.347Z,39.25
2023-05-09T11:00:06.843Z,39.44
2023-05-09T11:01:11.256Z,39.07
2023-05-09T11:02:21.256Z,38.92
2023-05-09T11:03:28.323Z,38.74
2023-05-09T11:04:36.574Z,38.92
2023-05-09T11:05:41.066Z,38.57
2023-05-09T11:06:55.757Z,38.48
2023-05-09T11:08:31.310Z,38.39
2023-05-09T11:09:38.269Z,38.86
2023-05-09T11:10:45.206Z,38.53
2023-05-09T11:11:55.127Z,38.20
2023-05-09T11:13:01.916Z,38.44
2023-05-09T11:14:06.069Z,38.12
2023-05-09T11:15:14.678Z,37.80
2023-05-09T11:16:19.282Z,38.08
2023-05-09T11:17:23.247Z,38.00
2023-05-09T11:18:29.329Z,38.12
2023-05-09T11:20:02.219Z,37.69
2023-05-09T11:21:12.557Z,38.12
2023-05-09T11:22:28.386Z,38.34
2023-05-09T11:23:33.450Z,38.60
2023-05-09T11:24:39.237Z,38.36
2023-05-09T11:25:47.040Z,38.17
2023-05-09T11:26:51.858Z,37.87
2023-05-09T11:28:03.357Z,38.01
2023-05-09T11:29:07.741Z,38.11
2023-05-09T11:30:19.194Z,37.77
2023-05-09T11:31:23.362Z,37.78
2023-05-09T11:32:41.456Z,36.74
2023-05-09T11:33:55.583Z,36.76
2023-05-09T11:35:15.530Z,36.81
2023-05-09T11:36:34.017Z,36.57
2023-05-09T11:38:04.194Z,36.25
2023-05-09T11:39:11.526Z,36.47
2023-05-09T11:40:23.117Z,36.34
2023-05-09T11:41:28.702Z,36.32
2023-05-09T11:42:33.208Z,36.24
2023-05-09T11:43:39.173Z,36.38
2023-05-09T11:44:43.546Z,35.76
2023-05-09T11:45:57.856Z,35.90
2023-05-09T11:47:05.552Z,36.04
2023-05-09T11:48:26.595Z,36.03
2023-05-09T11:49:35.366Z,35.94
2023-05-09T11:50:41.291Z,36.20
2023-05-09T11:51:45.490Z,36.49
2023-05-09T11:52:50.285Z,36.03
2023-05-09T11:53:54.276Z,35.24
2023-05-09T11:54:59.973Z,35.44
2023-05-09T11:56:06.541Z,35.25
2023-05-09T11:57:11.294Z,34.98
2023-05-09T11:58:18.024Z,35.41
2023-05-09T11:59:21.987Z,35.42
2023-05-09T12:00:27.099Z,35.69
2023-05-09T12:01:32.098Z,35.62
2023-05-09T12:02:37.648Z,35.73
2023-05-09T12:03:48.218Z,35.77
2023-05-09T12:04:57.270Z,35.70
2023-05-09T12:06:04.445Z,35.86
2023-05-09T12:07:13.067Z,35.88
2023-05-09T12:08:17.669Z,36.25
2023-05-09T12:09:22.537Z,35.98
2023-05-09T12:10:27.075Z,35.28
2023-05-09T12:11:35.206Z,35.45
2023-05-09T12:12:51.183Z,35.52
2023-05-09T12:13:57.022Z,35.62
2023-05-09T12:15:09.002Z,35.47
2023-05-09T12:16:13.210Z,35.10
2023-05-09T12:17:17.300Z,35.57
2023-05-09T12:18:22.141Z,35.62
2023-05-09T12:19:28.239Z,35.89
2023-05-09T12:20:53.135Z,35.60
2023-05-09T12:22:00.574Z,35.30
2023-05-09T12:23:04.395Z,35.22
2023-05-09T12:24:08.771Z,35.06
2023-05-09T12:25:16.821Z,35.33
2023-05-09T12:26:23.268Z,35.51
2023-05-09T12:27:29.285Z,35.22
2023-05-09T12:28:34.915Z,34.84
2023-05-09T12:29:40.693Z,34.84
2023-05-09T12:30:45.827Z,35.06
2023-05-09T12:31:51.253Z,35.36
2023-05-09T12:32:56.575Z,35.53
2023-05-09T12:34:01.879Z,35.48
2023-05-09T12:35:08.896Z,35.78
2023-05-09T12:36:14.734Z,35.78
2023-05-09T12:37:20.264Z,35.67
2023-05-09T12:38:25.925Z,35.64
2023-05-09T12:39:30.647Z,35.81
2023-05-09T12:40:36.237Z,35.33
2023-05-09T12:42:00.588Z,35.70
2023-05-09T12:43:07.503Z,35.37
2023-05-09T12:44:25.507Z,35.27
2023-05-09T12:45:34.019Z,34.83
2023-05-09T12:46:38.612Z,34.56
2023-05-09T12:47:42.983Z,34.97
2023-05-09T12:48:50.840Z,34.89
2023-05-09T12:50:02.759Z,34.77
2023-05-09T12:51:08.746Z,34.53
2023-05-09T12:52:20.848Z,33.96
2023-05-09T12:53:30.918Z,33.90
2023-05-09T12:54:37.893Z,34.10
2023-05-09T12:55:42.547Z,33.71
2023-05-09T12:56:48.368Z,33.69
2023-05-09T12:58:06.667Z,33.71
2023-05-09T12:59:15.155Z,33.70
2023-05-09T13:00:22.898Z,33.62
2023-05-09T13:01:30.482Z,33.48
2023-05-09T13:02:43.118Z,33.73
2023-05-09T13:03:54.093Z,33.79
2023-05-09T13:05:11.984Z,34.24
2023-05-09T13:06:16.724Z,34.23
2023-05-09T13:07:22.006Z,33.91
2023-05-09T13:08:28.455Z,33.96
2023-05-09T13:09:34.395Z,34.24
2023-05-09T13:10:45.157Z,34.37
2023-05-09T13:11:52.670Z,34.08
2023-05-09T13:12:57.724Z,33.84
2023-05-09T13:14:04.638Z,33.85
2023-05-09T13:15:12.127Z,33.33
2023-05-09T13:16:17.646Z,33.77
2023-05-09T13:17:22.171Z,34.19
2023-05-09T13:18:27.105Z,34.34
2023-05-09T13:19:34.014Z,34.03
2023-05-09T13:20:38.841Z,33.99
2023-05-09T13:21:42.957Z,34.02
2023-05-09T13:22:50.620Z,34.18
2023-05-09T13:23:54.618Z,34.47
2023-05-09T13:24:59.266Z,33.93
2023-05-09T13:26:06.315Z,33.77
2023-05-09T13:27:13.607Z,34.07
2023-05-09T13:28:17.686Z,34.38
2023-05-09T13:29:22.899Z,33.91
2023-05-09T13:30:28.401Z,34.43
2023-05-09T13:31:34.642Z,34.55
2023-05-09T13:32:38.792Z,34.60
2023-05-09T13:33:42.847Z,33.89
2023-05-09T13:34:52.906Z,33.84
2023-05-09T13:35:57.521Z,34.21
2023-05-09T13:37:01.628Z,34.26
2023-05-09T13:38:06.102Z,34.31
2023-05-09T13:39:11.062Z,34.43
2023-05-09T13:40:16.847Z,34.39
2023-05-09T13:41:22.627Z,34.35
2023-05-09T13:42:27.298Z,34.09
2023-05-09T13:43:31.443Z,34.27
2023-05-09T13:44:36.820Z,34.18
2023-05-09T13:45:41.374Z,34.29
2023-05-09T13:46:49.759Z,34.32
2023-05-09T13:47:55.499Z,34.04
2023-05-09T13:49:00.739Z,33.96
2023-05-09T13:50:08.596Z,34.12
2023-05-09T13:51:12.944Z,34.11
2023-05-09T13:52:17.506Z,34.41
2023-05-09T13:53:21.916Z,33.91
2023-05-09T13:54:27.954Z,34.00
2023-05-09T13:55:32.496Z,33.86
2023-05-09T13:56:37.722Z,34.04
2023-05-09T13:57:41.912Z,34.20
2023-05-09T13:58:45.642Z,34.37
2023-05-09T13:59:50.071Z,34.61
2023-05-09T14:00:54.000Z,35.05
2023-05-09T14:02:00.405Z,34.99
2023-05-09T14:03:05.373Z,35.09
2023-05-09T14:04:09.637Z,34.74
2023-05-09T14:05:14.311Z,34.92
2023-05-09T14:06:18.328Z,34.66
2023-05-09T14:07:22.088Z,34.42
2023-05-09T14:08:26.228Z,34.12
2023-05-09T14:09:30.713Z,34.41
2023-05-09T14:10:34.825Z,34.24
2023-05-09T14:11:38.684Z,34.09
2023-05-09T14:12:44.703Z,34.28
2023-05-09T14:13:48.619Z,34.30
2023-05-09T14:14:52.599Z,34.28
2023-05-09T14:16:00.124Z,34.68
2023-05-09T14:17:07.826Z,34.52
2023-05-09T14:18:17.128Z,34.07
2023-05-09T14:19:23.911Z,33.93
2023-05-09T14:20:40.919Z,34.08
2023-05-09T14:21:58.663Z,34.25
2023-05-09T14:23:05.331Z,34.72
2023-05-09T14:24:15.686Z,34.28